Latest Coastal Weather Observations for Wyndham Airport

IDD60701

Issued at 2:41 pm CST Saturday 30 April 2016 (issued every 10 minutes, with the page automatically refreshed every 10 minutes)

About coastal observations | Map of coastal stations | Coastal observations for NT | Marine services | Other Formats
Station Details ID: 001006 Name: WYNDHAM AERO Lat: -15.51 Lon: 128.15 Height: 3.8 m
Data from the previous 72 hours. | See also: Recent months at Wyndham Airport
Date/Time
CST
Temp

°C
Wind Pressure Rain
since 9am
mm
Weather Cloud Vis
km
Sea
Height
m
Swell
Dir
 
Speed
knots
Gust
knots
hPa Trend Height
m
Period
s
Dir
30/02:30pm 37.6 NNE 6 10 1008.8 - 0.0 - - - - - - -
30/02:00pm 37.5 N 6 8 1009.3 - 0.0 - - - - - - -
30/01:30pm 36.8 ENE 6 13 1009.8 - 0.0 - - - - - - -
30/01:00pm 36.6 S 5 9 1010.4 - 0.0 - - - - - - -
30/12:30pm 35.9 SSE 5 8 1011.1 - 0.0 - - - - - - -
30/12:00pm 35.4 SSW 5 7 1011.6 - 0.0 - - - - - - -
30/11:30am 34.2 WSW 5 8 1012.2 - 0.0 - - - - - - -
30/11:00am 33.9 S 5 7 1012.5 - 0.0 - - - - - - -
30/10:30am 32.8 SW 4 7 1012.7 - 0.0 - - - - - - -
30/10:00am 31.6 WSW 2 5 1012.6 - 0.0 - - - - - - -
30/09:30am 30.7 W 4 6 1012.5 - 0.0 - - - - - - -
30/09:00am 30.3 NW 4 5 1012.4 - 0.0 - - - - - - -
30/08:30am 28.2 CALM 0 0 1012.4 - 0.0 - - - - - - -
30/08:00am 25.9 CALM 0 0 1012.1 - 0.0 - - - - - - -
30/07:30am 24.6 NW 2 4 1011.6 - 0.0 - - - - - - -
30/07:00am 24.6 W 3 4 1011.3 - 0.0 - - - - - - -
30/06:30am 24.5 W 3 4 1011.0 - 0.0 - - - - - - -
30/06:00am 24.5 WSW 4 5 1010.7 - 0.0 - - - - - - -
30/05:30am 25.4 W 1 4 1010.7 - 0.0 - - - - - - -
30/05:00am 23.9 CALM 0 0 1010.3 - 0.0 - - - - - - -
30/04:30am 24.2 NNW 1 4 1010.2 - 0.0 - - - - - - -
30/04:00am 24.7 CALM 0 0 1010.1 - 0.0 - - - - - - -
30/03:30am 24.7 CALM 0 0 1010.1 - 0.0 - - - - - - -
30/03:00am 24.5 CALM 0 0 1010.1 - 0.0 - - - - - - -
30/02:30am 25.0 CALM 0 0 1010.2 - 0.0 - - - - - - -
30/02:00am 24.9 CALM 0 0 1010.5 - 0.0 - - - - - - -
30/01:30am 25.8 CALM 0 0 1010.8 - 0.0 - - - - - - -
30/01:00am 26.9 NE 3 5 1011.1 - 0.0 - - - - - - -
30/12:30am 27.6 E 6 7 1011.4 - 0.0 - - - - - - -
30/12:00am 27.0 ESE 6 8 1011.5 - 0.0 - - - - - - -
 
Date/Time
CST
Temp

°C
Wind Pressure Rain
since 9am
mm
Weather Cloud Vis
km
Sea
Height
m
Swell
Dir
 
Speed
knots
Gust
knots
hPa Trend Height
m
Period
s
Dir
29/11:30pm 28.2 E 6 8 1011.6 - 0.0 - - - - - - -
29/11:00pm 29.9 CALM 0 0 1011.6 - 0.0 - - - - - - -
29/10:30pm 30.7 SW 5 7 1011.6 - 0.0 - - - - - - -
29/10:00pm 31.7 N 9 12 1011.4 - 0.0 - - - - - - -
29/09:30pm 31.6 N 9 12 1011.4 - 0.0 - - - - - - -
29/09:00pm 31.7 N 10 13 1011.1 - 0.0 - - - - - - -
29/08:30pm 32.1 N 9 13 1010.7 - 0.0 - - - - - - -
29/08:00pm 32.2 N 6 8 1010.3 - 0.0 - - - - - - -
29/07:30pm 32.3 N 5 7 1009.9 - 0.0 - - - - - - -
29/07:00pm 32.7 NNW 6 7 1009.6 - 0.0 - - - - - - -
29/06:30pm 34.1 NNW 6 8 1009.3 - 0.0 - - - - - - -
29/06:00pm 35.4 N 6 9 1009.0 - 0.0 - - - - - - -
29/05:30pm 36.3 ENE 4 9 1008.6 - 0.0 - - - - - - -
29/05:00pm 37.2 NNE 6 8 1008.4 - 0.0 - - - - - - -
29/04:30pm 36.9 ENE 4 9 1008.3 - 0.0 - - - - - - -
29/04:00pm 36.9 NNW 5 9 1008.3 - 0.0 - - - - - - -
29/03:30pm 38.1 W 7 12 1008.3 - 0.0 - - - - - - -
29/03:00pm 35.7 NNE 7 12 1008.7 - 0.0 - - - - - - -
29/02:30pm 36.4 NW 6 10 1009.1 - 0.0 - - - - - - -
29/02:00pm 37.3 N 5 11 1009.4 - 0.0 - - - - - - -
29/01:30pm 36.3 NNW 5 8 1010.2 - 0.0 - - - - - - -
29/01:00pm 35.4 NW 4 9 1010.7 - 0.0 - - - - - - -
29/12:30pm 35.4 NW 8 13 1011.2 - 0.0 - - - - - - -
29/12:00pm 34.4 WNW 7 13 1011.8 - 0.0 - - - - - - -
29/11:30am 34.4 WNW 5 9 1012.4 - 0.0 - - - - - - -
29/11:00am 33.0 WNW 5 7 1012.8 - 0.0 - - - - - - -
29/10:30am 31.9 W 6 10 1012.9 - 0.0 - - - - - - -
29/10:00am 31.2 W 4 6 1012.9 - 0.0 - - - - - - -
29/09:30am 30.5 WSW 4 6 1012.9 - 0.0 - - - - - - -
29/09:00am 29.7 W 3 4 1012.7 - 0.0 - - - - - - -
29/08:30am 28.7 CALM 0 0 1012.4 - 0.0 - - - - - - -
29/08:00am 27.0 CALM 0 0 1012.2 - 0.0 - - - - - - -
29/07:30am 25.7 CALM 0 0 1011.9 - 0.0 - - - - - - -
29/07:00am 25.6 CALM 0 0 1011.6 - 0.0 - - - - - - -
29/06:30am 25.9 CALM 0 0 1011.2 - 0.0 - - - - - - -
29/06:00am 25.6 CALM 0 0 1010.9 - 0.0 - - - - - - -
29/05:30am 26.2 CALM 0 0 1010.6 - 0.0 - - - - - - -
29/05:00am 26.4 CALM 0 0 1010.5 - 0.0 - - - - - - -
29/04:30am 26.2 CALM 0 0 1010.2 - 0.0 - - - - - - -
29/04:00am 26.0 WNW 2 3 1010.3 - 0.0 - - - - - - -
29/03:30am 25.9 CALM 0 0 1010.3 - 0.0 - - - - - - -
29/03:00am 25.6 CALM 0 0 1010.5 - 0.0 - - - - - - -
29/02:30am 25.4 CALM 0 0 1010.6 - 0.0 - - - - - - -
29/02:00am 25.9 CALM 0 0 1010.6 - 0.0 - - - - - - -
29/01:30am 26.1 CALM 0 0 1010.8 - 0.0 - - - - - - -
29/01:00am 26.6 CALM 0 0 1010.9 - 0.0 - - - - - - -
29/12:30am 26.9 CALM 0 2 1011.0 - 0.0 - - - - - - -
29/12:00am 27.3 E 5 5 1011.4 - 0.0 - - - - - - -
 
Date/Time
CST
Temp

°C
Wind Pressure Rain
since 9am
mm
Weather Cloud Vis
km
Sea
Height
m
Swell
Dir
 
Speed
knots
Gust
knots
hPa Trend Height
m
Period
s
Dir
28/11:30pm 27.5 E 5 5 1011.6 - 0.0 - - - - - - -
28/11:00pm 28.1 SSE 4 6 1011.6 - 0.0 - - - - - - -
28/10:30pm 28.9 CALM 0 0 1011.4 - 0.0 - - - - - - -
28/10:00pm 30.2 CALM 0 0 1011.3 - 0.0 - - - - - - -
28/09:30pm 29.7 SSW 5 6 1011.1 - 0.0 - - - - - - -
28/09:00pm 31.0 N 7 9 1010.8 - 0.0 - - - - - - -
28/08:30pm 31.3 N 9 13 1010.4 - 0.0 - - - - - - -
28/08:00pm 31.5 N 9 13 1010.0 - 0.0 - - - - - - -
28/07:30pm 31.6 N 10 15 1009.7 - 0.0 - - - - - - -
28/07:00pm 31.7 N 9 13 1009.4 - 0.0 - - - - - - -
28/06:30pm 32.6 NNE 11 15 1009.1 - 0.0 - - - - - - -
28/06:00pm 33.8 NNE 9 14 1008.8 - 0.0 - - - - - - -
28/05:30pm 34.3 NNE 12 16 1008.5 - 0.0 - - - - - - -
28/05:00pm 34.7 NNE 10 14 1008.3 - 0.0 - - - - - - -
28/04:30pm 35.6 NNE 8 15 1008.4 - 0.0 - - - - - - -
28/04:00pm 35.0 CALM 0 2 1008.3 - 0.0 - - - - - - -
28/03:30pm 35.3 W 3 7 1008.3 - 0.0 - - - - - - -
28/03:00pm 35.1 WNW 7 9 1008.4 - 0.0 - - - - - - -
28/02:30pm 34.9 WNW 8 11 1008.7 - 0.0 - - - - - - -
28/02:00pm 35.2 WNW 9 13 1008.8 - 0.0 - - - - - - -
28/01:30pm 36.1 NW 6 8 1009.1 - 0.0 - - - - - - -
28/01:00pm 35.4 N 8 11 1009.6 - 0.0 - - - - - - -
28/12:30pm 34.9 NE 5 9 1010.1 - 0.0 - - - - - - -
28/12:00pm 35.8 N 6 9 1010.4 - 0.0 - - - - - - -
28/11:30am 35.0 NW 3 5 1010.9 - 0.0 - - - - - - -
28/11:00am 34.0 SSW 5 7 1011.4 - 0.0 - - - - - - -
28/10:30am 33.0 WSW 4 7 1011.5 - 0.0 - - - - - - -
28/10:00am 31.6 W 3 6 1011.6 - 0.0 - - - - - - -
28/09:30am 29.8 W 4 5 1011.7 - 0.0 - - - - - - -
28/09:00am 28.7 W 4 5 1011.5 - 0.0 - - - - - - -
28/08:30am 28.5 SW 4 6 1011.2 - 0.0 - - - - - - -
28/08:00am 27.6 S 5 7 1010.7 - 0.0 - - - - - - -
28/07:30am 26.4 WSW 1 4 1010.2 - 0.0 - - - - - - -
28/07:00am 25.8 WNW 3 4 1009.8 - 0.0 - - - - - - -
28/06:30am 25.9 CALM 0 0 1009.4 - 0.0 - - - - - - -
28/06:00am 25.6 CALM 0 0 1009.3 - 0.0 - - - - - - -
28/05:30am 26.1 WNW 1 4 1009.1 - 0.0 - - - - - - -
28/05:00am 27.2 WSW 3 5 1009.0 - 0.0 - - - - - - -
28/04:30am 27.6 WSW 3 4 1009.0 - 0.0 - - - - - - -
28/04:00am 27.0 SW 4 5 1009.0 - 0.0 - - - - - - -
28/03:30am 25.5 WSW 3 4 1009.1 - 0.0 - - - - - - -
28/03:00am 24.8 CALM 0 0 1009.2 - 0.0 - - - - - - -
28/02:30am 25.3 WNW 3 4 1009.1 - 0.0 - - - - - - -
28/02:00am 25.9 NNW 3 5 1009.3 - 0.0 - - - - - - -
28/01:30am 26.4 WSW 4 7 1009.4 - 0.0 - - - - - - -
28/01:00am 26.8 NE 3 8 1009.4 - 0.0 - - - - - - -
28/12:30am 26.4 CALM 0 2 1009.5 - 0.0 - - - - - - -
28/12:00am 26.1 NE 3 4 1009.7 - 0.0 - - - - - - -
 
Date/Time
CST
Temp

°C
Wind Pressure Rain
since 9am
mm
Weather Cloud Vis
km
Sea
Height
m
Swell
Dir
 
Speed
knots
Gust
knots
hPa Trend Height
m
Period
s
Dir
27/11:30pm 27.4 E 7 8 1009.9 - 0.0 - - - - - - -
27/11:00pm 26.9 E 4 5 1010.1 - 0.0 - - - - - - -
27/10:30pm 28.1 E 5 6 1010.2 - 0.0 - - - - - - -
27/10:00pm 29.2 SE 4 5 1010.3 - 0.0 - - - - - - -
27/09:30pm 30.4 SSE 1 5 1010.0 - 0.0 - - - - - - -
27/09:00pm 30.9 NE 4 5 1009.8 - 0.0 - - - - - - -
27/08:30pm 31.8 NNE 6 8 1009.5 - 0.0 - - - - - - -
27/08:00pm 32.5 NNE 7 9 1009.1 - 0.0 - - - - - - -
27/07:30pm 32.9 N 9 11 1008.7 - 0.0 - - - - - - -
27/07:00pm 32.7 ENE 5 6 1008.3 - 0.0 - - - - - - -
27/06:30pm 34.5 ESE 7 8 1008.0 - 0.0 - - - - - - -
27/06:00pm 35.7 SE 9 11 1007.9 - 0.0 - - - - - - -
27/05:30pm 36.4 E 7 11 1007.6 - 0.0 - - - - - - -
27/05:00pm 37.0 ENE 7 10 1007.5 - 0.0 - - - - - - -
27/04:30pm 37.1 SE 8 11 1007.4 - 0.0 - - - - - - -

Other Formats:

Comma delimited format used in spreadsheet applications
http://www.bom.gov.au/fwo/IDD60701/IDD60701.95214.axf

JavaScript Object Notation format (JSON) in row-major order
http://www.bom.gov.au/fwo/IDD60701/IDD60701.95214.json